createdAt,value
2023-04-18T00:01:39.687Z,100.00
2023-04-18T00:04:09.659Z,100.00
2023-04-18T00:06:37.886Z,100.00
2023-04-18T00:09:06.310Z,100.00
2023-04-18T00:11:35.029Z,100.00
2023-04-18T00:14:03.502Z,100.00
2023-04-18T00:16:33.277Z,100.00
2023-04-18T00:19:02.389Z,100.00
2023-04-18T00:21:31.897Z,100.00
2023-04-18T00:23:59.887Z,100.00
2023-04-18T00:26:28.231Z,100.00
2023-04-18T00:28:57.342Z,100.00
2023-04-18T00:31:25.545Z,100.00
2023-04-18T00:33:53.653Z,100.00
2023-04-18T00:36:24.957Z,100.00
2023-04-18T00:38:53.094Z,100.00
2023-04-18T00:41:22.226Z,100.00
2023-04-18T00:43:50.415Z,100.00
2023-04-18T00:46:18.459Z,100.00
2023-04-18T00:48:47.723Z,100.00
2023-04-18T00:51:15.760Z,100.00
2023-04-18T00:53:45.573Z,100.00
2023-04-18T00:56:14.592Z,100.00
2023-04-18T00:58:42.506Z,100.00
2023-04-18T01:01:10.904Z,100.00
2023-04-18T01:03:39.863Z,100.00
2023-04-18T01:06:08.278Z,100.00
2023-04-18T01:08:37.391Z,100.00
2023-04-18T01:11:06.242Z,100.00
2023-04-18T01:13:34.276Z,100.00
2023-04-18T01:16:04.439Z,100.00
2023-04-18T01:18:32.568Z,100.00
2023-04-18T01:21:00.800Z,100.00
2023-04-18T01:23:28.719Z,100.00
2023-04-18T01:25:57.003Z,100.00
2023-04-18T01:28:27.900Z,100.00
2023-04-18T01:30:57.272Z,100.00
2023-04-18T01:33:25.526Z,100.00
2023-04-18T01:35:53.456Z,100.00
2023-04-18T01:38:21.446Z,100.00
2023-04-18T01:40:49.758Z,100.00
2023-04-18T01:43:17.685Z,100.00
2023-04-18T01:45:45.621Z,100.00
2023-04-18T01:48:13.524Z,100.00
2023-04-18T01:50:43.074Z,100.00
2023-04-18T01:53:11.845Z,100.00
2023-04-18T01:55:39.723Z,100.00
2023-04-18T01:58:08.655Z,100.00
2023-04-18T02:00:37.497Z,100.00
2023-04-18T02:03:06.693Z,99.93
2023-04-18T02:05:37.650Z,99.78
2023-04-18T02:08:08.401Z,99.65
2023-04-18T02:10:38.931Z,99.16
2023-04-18T02:13:06.935Z,98.58
2023-04-18T02:15:35.619Z,98.86
2023-04-18T02:18:03.793Z,98.56
2023-04-18T02:20:31.813Z,98.14
2023-04-18T02:23:03.544Z,98.26
2023-04-18T02:25:31.974Z,98.38
2023-04-18T02:27:59.978Z,97.96
2023-04-18T02:30:27.952Z,98.22
2023-04-18T02:32:58.983Z,98.31
2023-04-18T02:35:27.697Z,98.07
2023-04-18T02:37:55.786Z,98.04
2023-04-18T02:40:23.669Z,97.78
2023-04-18T02:42:51.863Z,97.62
2023-04-18T02:45:19.779Z,97.54
2023-04-18T02:47:55.118Z,97.21
2023-04-18T02:50:25.314Z,97.18
2023-04-18T02:52:54.951Z,97.16
2023-04-18T02:55:24.515Z,96.72
2023-04-18T02:57:53.509Z,96.62
2023-04-18T03:00:44.372Z,95.99
2023-04-18T03:03:35.409Z,95.78
2023-04-18T03:06:27.363Z,95.77
2023-04-18T03:08:55.984Z,95.98
2023-04-18T03:11:25.083Z,96.11
2023-04-18T03:13:53.908Z,95.83
2023-04-18T03:16:22.669Z,95.74
2023-04-18T03:18:50.898Z,95.74
2023-04-18T03:21:19.597Z,95.30
2023-04-18T03:23:47.691Z,95.01
2023-04-18T03:26:16.155Z,95.11
2023-04-18T03:28:45.556Z,94.99
2023-04-18T03:31:13.611Z,94.73
2023-04-18T03:33:44.348Z,94.98
2023-04-18T03:36:17.339Z,95.53
2023-04-18T03:38:45.546Z,95.81
2023-04-18T03:41:13.784Z,95.64
2023-04-18T03:43:42.794Z,95.25
2023-04-18T03:46:10.777Z,95.41
2023-04-18T03:48:39.298Z,95.83
2023-04-18T03:51:09.916Z,96.40
2023-04-18T03:53:38.280Z,97.21
2023-04-18T03:56:07.172Z,97.69
2023-04-18T03:59:00.964Z,97.40
2023-04-18T04:01:29.373Z,97.62
2023-04-18T04:03:57.577Z,97.85
2023-04-18T04:06:26.515Z,98.11
2023-04-18T04:08:56.131Z,98.01
2023-04-18T04:11:26.229Z,98.64
2023-04-18T04:13:54.111Z,98.44
2023-04-18T04:16:25.024Z,98.41
2023-04-18T04:18:53.575Z,98.82
2023-04-18T04:21:24.420Z,99.02
2023-04-18T04:23:54.195Z,99.13
2023-04-18T04:26:27.937Z,99.44
2023-04-18T04:29:03.793Z,99.39
2023-04-18T04:31:33.078Z,99.62
2023-04-18T04:34:01.701Z,99.20
2023-04-18T04:36:29.963Z,98.89
2023-04-18T04:38:59.812Z,99.16
2023-04-18T04:41:37.676Z,98.43
2023-04-18T04:44:07.027Z,97.87
2023-04-18T04:46:39.580Z,98.49
2023-04-18T04:49:14.336Z,99.02
2023-04-18T04:51:44.362Z,98.83
2023-04-18T04:54:12.942Z,98.76
2023-04-18T04:56:41.612Z,98.75
2023-04-18T04:59:09.758Z,99.01
2023-04-18T05:01:41.757Z,98.77
2023-04-18T05:04:09.883Z,99.08
2023-04-18T05:06:40.160Z,99.44
2023-04-18T05:09:08.418Z,99.64
2023-04-18T05:11:36.671Z,99.85
2023-04-18T05:14:04.687Z,99.96
2023-04-18T05:16:33.027Z,100.00
2023-04-18T05:19:01.059Z,100.00
2023-04-18T05:21:29.551Z,100.00
2023-04-18T05:23:57.482Z,100.00
2023-04-18T05:26:25.628Z,100.00
2023-04-18T05:28:53.595Z,100.00
2023-04-18T05:31:21.712Z,100.00
2023-04-18T05:33:49.804Z,100.00
2023-04-18T05:36:17.745Z,100.00
2023-04-18T05:38:45.660Z,100.00
2023-04-18T05:41:13.733Z,100.00
2023-04-18T05:43:43.025Z,100.00
2023-04-18T05:46:14.582Z,100.00
2023-04-18T05:48:42.587Z,100.00
2023-04-18T05:51:11.633Z,100.00
2023-04-18T05:53:39.754Z,100.00
2023-04-18T05:56:07.789Z,100.00
2023-04-18T05:58:35.744Z,100.00
2023-04-18T06:01:03.743Z,100.00
2023-04-18T06:03:31.790Z,100.00
2023-04-18T06:06:00.297Z,100.00
2023-04-18T06:08:28.389Z,100.00
2023-04-18T06:10:56.296Z,100.00
2023-04-18T06:13:24.118Z,100.00
2023-04-18T06:15:52.078Z,100.00
2023-04-18T06:18:19.930Z,100.00
2023-04-18T06:20:47.831Z,100.00
2023-04-18T06:23:16.125Z,100.00
2023-04-18T06:25:44.159Z,100.00
2023-04-18T06:28:12.050Z,100.00
2023-04-18T06:30:39.998Z,100.00
2023-04-18T06:33:10.556Z,100.00
2023-04-18T06:35:38.761Z,100.00
2023-04-18T06:38:06.750Z,100.00
2023-04-18T06:40:34.984Z,100.00
2023-04-18T06:43:03.019Z,100.00
2023-04-18T06:45:31.577Z,100.00
2023-04-18T06:47:59.896Z,100.00
2023-04-18T06:50:27.999Z,100.00
2023-04-18T06:52:56.103Z,100.00
2023-04-18T06:55:30.982Z,100.00
2023-04-18T06:58:00.675Z,100.00
2023-04-18T07:00:28.895Z,99.66
2023-04-18T07:02:57.142Z,98.56
2023-04-18T07:05:25.227Z,98.13
2023-04-18T07:07:53.358Z,97.94
2023-04-18T07:10:21.380Z,97.91
2023-04-18T07:12:49.242Z,97.55
2023-04-18T07:15:17.254Z,97.21
2023-04-18T07:17:46.194Z,96.30
2023-04-18T07:20:14.447Z,96.65
2023-04-18T07:22:42.763Z,97.06
2023-04-18T07:25:11.541Z,98.04
2023-04-18T07:27:39.559Z,99.35
2023-04-18T07:30:08.420Z,99.59
2023-04-18T07:32:36.551Z,98.36
2023-04-18T07:35:05.025Z,97.86
2023-04-18T07:37:33.078Z,97.18
2023-04-18T07:40:01.044Z,96.82
2023-04-18T07:42:28.979Z,96.24
2023-04-18T07:44:59.885Z,96.22
2023-04-18T07:47:30.454Z,95.10
2023-04-18T07:49:59.262Z,94.66
2023-04-18T07:52:27.288Z,93.76
2023-04-18T07:54:55.311Z,93.78
2023-04-18T07:57:23.273Z,93.03
2023-04-18T07:59:53.830Z,93.04
2023-04-18T08:02:22.029Z,92.47
2023-04-18T08:04:52.314Z,92.08
2023-04-18T08:07:20.436Z,92.52
2023-04-18T08:09:48.307Z,92.47
2023-04-18T08:12:16.196Z,92.20
2023-04-18T08:14:44.250Z,91.52
2023-04-18T08:17:14.391Z,90.43
2023-04-18T08:19:42.542Z,89.12
2023-04-18T08:22:11.214Z,89.22
2023-04-18T08:24:39.324Z,90.60
2023-04-18T08:27:07.528Z,90.39
2023-04-18T08:29:35.565Z,90.53
2023-04-18T08:32:07.491Z,90.43
2023-04-18T08:34:38.400Z,88.94
2023-04-18T08:37:07.395Z,87.54
2023-04-18T08:39:35.618Z,85.41
2023-04-18T08:42:06.657Z,84.32
2023-04-18T08:44:34.647Z,85.20
2023-04-18T08:47:03.152Z,86.24
2023-04-18T08:49:31.504Z,84.44
2023-04-18T08:52:01.442Z,81.07
2023-04-18T08:54:30.713Z,79.61
2023-04-18T08:57:10.142Z,80.94
2023-04-18T08:59:40.078Z,82.12
2023-04-18T09:02:10.221Z,81.47
2023-04-18T09:04:45.194Z,81.54
2023-04-18T09:07:16.295Z,81.68
2023-04-18T09:09:46.318Z,81.98
2023-04-18T09:12:18.484Z,82.34
2023-04-18T09:14:47.914Z,83.14
2023-04-18T09:17:31.742Z,83.27
2023-04-18T09:20:01.190Z,83.28
2023-04-18T09:22:52.983Z,82.23
2023-04-18T09:25:35.924Z,81.47
2023-04-18T09:28:06.473Z,81.98
2023-04-18T09:30:42.286Z,81.78
2023-04-18T09:33:10.421Z,80.79
2023-04-18T09:35:41.659Z,81.20
2023-04-18T09:38:09.931Z,81.38
2023-04-18T09:40:38.127Z,80.02
2023-04-18T09:43:21.496Z,80.10
2023-04-18T09:45:49.888Z,80.80
2023-04-18T09:48:18.102Z,81.00
2023-04-18T09:50:47.730Z,78.93
2023-04-18T09:53:21.047Z,74.09
2023-04-18T09:55:55.595Z,69.96
2023-04-18T09:58:30.814Z,68.07
2023-04-18T10:00:59.169Z,68.77
2023-04-18T10:03:35.073Z,68.97
2023-04-18T10:06:03.972Z,70.40
2023-04-18T10:08:33.257Z,72.96
2023-04-18T10:11:01.551Z,76.40
2023-04-18T10:13:30.379Z,75.48
2023-04-18T10:15:58.943Z,75.00
2023-04-18T10:18:26.825Z,75.36
2023-04-18T10:21:04.320Z,72.81
2023-04-18T10:23:32.479Z,68.07
2023-04-18T10:26:01.742Z,64.94
2023-04-18T10:28:49.577Z,62.61
2023-04-18T10:31:17.678Z,63.36
2023-04-18T10:34:00.696Z,64.47
2023-04-18T10:36:33.495Z,65.21
2023-04-18T10:39:21.032Z,63.41
2023-04-18T10:41:50.972Z,62.41
2023-04-18T10:44:22.846Z,61.21
2023-04-18T10:46:51.338Z,61.24
2023-04-18T10:49:25.156Z,62.06
2023-04-18T10:51:58.508Z,58.35
2023-04-18T10:54:47.587Z,54.93
2023-04-18T10:57:15.755Z,52.76
2023-04-18T10:59:48.346Z,52.60
2023-04-18T11:02:30.921Z,53.31
2023-04-18T11:05:01.736Z,53.53
2023-04-18T11:07:46.206Z,52.78
2023-04-18T11:10:18.914Z,52.11
2023-04-18T11:12:47.382Z,51.96
2023-04-18T11:15:21.429Z,49.56
2023-04-18T11:18:03.921Z,49.69
2023-04-18T11:20:40.023Z,49.36
2023-04-18T11:23:23.106Z,50.88
2023-04-18T11:25:54.120Z,51.91
2023-04-18T11:28:25.025Z,51.65
2023-04-18T11:30:59.159Z,52.60
2023-04-18T11:33:29.406Z,48.83
2023-04-18T11:36:00.986Z,49.41
2023-04-18T11:38:32.286Z,49.44
2023-04-18T11:41:03.050Z,48.29
2023-04-18T11:43:31.026Z,45.76
2023-04-18T11:46:00.016Z,46.61
2023-04-18T11:48:42.029Z,47.83
2023-04-18T11:51:35.685Z,45.42
2023-04-18T11:54:04.269Z,43.55
2023-04-18T11:56:34.624Z,43.44
2023-04-18T11:59:10.446Z,43.85
2023-04-18T12:01:38.468Z,43.88
2023-04-18T12:04:08.546Z,40.58
2023-04-18T12:06:55.495Z,38.21
2023-04-18T12:09:25.328Z,38.21
2023-04-18T12:12:01.628Z,39.08
2023-04-18T12:14:30.583Z,39.29
2023-04-18T12:17:03.543Z,38.97
2023-04-18T12:19:31.626Z,38.82
2023-04-18T12:22:01.328Z,39.36
2023-04-18T12:24:30.100Z,38.47
2023-04-18T12:26:59.165Z,38.30
2023-04-18T12:29:28.673Z,38.26
2023-04-18T12:31:56.992Z,37.99
2023-04-18T12:34:25.375Z,38.15
2023-04-18T12:36:54.107Z,37.76
2023-04-18T12:39:22.183Z,36.60
2023-04-18T12:41:50.145Z,35.86
2023-04-18T12:44:18.412Z,35.88
2023-04-18T12:46:46.472Z,37.04
2023-04-18T12:49:14.563Z,36.76
2023-04-18T12:51:43.676Z,35.94
2023-04-18T12:54:11.750Z,36.51
2023-04-18T12:56:42.286Z,37.27
2023-04-18T12:59:10.755Z,36.97
2023-04-18T13:01:38.752Z,36.45
2023-04-18T13:04:12.502Z,35.57
2023-04-18T13:06:41.510Z,35.41
2023-04-18T13:09:10.528Z,35.60
2023-04-18T13:11:38.484Z,35.80
2023-04-18T13:14:06.316Z,36.31
2023-04-18T13:16:34.252Z,37.20
2023-04-18T13:19:02.131Z,36.35
2023-04-18T13:21:30.050Z,36.42
2023-04-18T13:23:58.056Z,36.67
2023-04-18T13:26:26.474Z,36.76
2023-04-18T13:28:54.450Z,37.06
2023-04-18T13:31:22.430Z,37.64
2023-04-18T13:33:50.522Z,36.17
2023-04-18T13:36:18.876Z,35.88
2023-04-18T13:38:47.608Z,36.45
2023-04-18T13:41:15.741Z,35.55
2023-04-18T13:43:43.737Z,35.62
2023-04-18T13:46:11.901Z,36.60
2023-04-18T13:48:39.899Z,36.02
2023-04-18T13:51:07.896Z,36.57
2023-04-18T13:53:35.807Z,36.78
2023-04-18T13:56:04.130Z,36.76
2023-04-18T13:58:32.066Z,36.48
2023-04-18T14:01:00.963Z,36.74
2023-04-18T14:03:33.655Z,37.11
2023-04-18T14:06:02.822Z,37.10
2023-04-18T14:08:30.849Z,36.77
2023-04-18T14:10:58.768Z,36.12
2023-04-18T14:13:27.235Z,36.74
2023-04-18T14:15:55.301Z,37.00
2023-04-18T14:18:24.702Z,36.75
2023-04-18T14:20:52.638Z,36.28
2023-04-18T14:23:22.674Z,36.36
2023-04-18T14:25:50.786Z,36.53
2023-04-18T14:28:21.714Z,36.42
2023-04-18T14:30:49.709Z,35.91
2023-04-18T14:33:18.343Z,36.44
2023-04-18T14:35:46.217Z,36.24
2023-04-18T14:38:14.052Z,36.68
2023-04-18T14:40:42.368Z,37.31
2023-04-18T14:43:10.916Z,37.77
2023-04-18T14:45:38.795Z,37.83
2023-04-18T14:48:08.101Z,37.12
2023-04-18T14:50:38.690Z,37.39
2023-04-18T14:53:07.460Z,37.53
2023-04-18T14:55:35.554Z,37.06
2023-04-18T14:58:03.624Z,36.52
2023-04-18T15:00:33.289Z,36.77
2023-04-18T15:03:01.536Z,36.72
2023-04-18T15:05:29.686Z,36.64
2023-04-18T15:07:58.160Z,35.90
2023-04-18T15:10:26.242Z,35.83
2023-04-18T15:12:54.327Z,34.95
2023-04-18T15:15:22.880Z,35.48
2023-04-18T15:17:50.949Z,36.12
2023-04-18T15:20:18.964Z,36.17
2023-04-18T15:22:46.825Z,36.64
2023-04-18T15:25:16.680Z,37.02
2023-04-18T15:27:44.584Z,37.47
2023-04-18T15:30:13.427Z,37.32
2023-04-18T15:32:44.492Z,37.42
2023-04-18T15:35:12.940Z,37.18
2023-04-18T15:37:41.605Z,36.48
2023-04-18T15:40:11.494Z,36.12
2023-04-18T15:42:39.479Z,35.83
2023-04-18T15:45:08.140Z,35.76
2023-04-18T15:47:36.197Z,36.11
2023-04-18T15:50:04.818Z,35.64
2023-04-18T15:52:32.769Z,34.87
2023-04-18T15:55:01.083Z,34.31
2023-04-18T15:57:29.864Z,33.73
2023-04-18T15:59:59.633Z,33.66
2023-04-18T16:02:27.958Z,33.74
2023-04-18T16:04:56.151Z,33.94
2023-04-18T16:07:24.027Z,33.95
2023-04-18T16:09:51.910Z,32.96
2023-04-18T16:12:19.788Z,33.59
2023-04-18T16:14:47.759Z,33.75
2023-04-18T16:17:15.736Z,33.99
2023-04-18T16:19:43.912Z,34.15
2023-04-18T16:22:12.675Z,34.65
2023-04-18T16:24:42.192Z,34.88
2023-04-18T16:27:10.429Z,34.99
2023-04-18T16:29:38.359Z,35.41
2023-04-18T16:32:06.764Z,35.69
2023-04-18T16:34:34.725Z,36.48
2023-04-18T16:37:02.595Z,36.91
2023-04-18T16:39:31.066Z,37.29
2023-04-18T16:41:58.916Z,37.56
2023-04-18T16:44:26.879Z,37.63
2023-04-18T16:46:54.918Z,38.03
2023-04-18T16:49:23.827Z,38.48
2023-04-18T16:51:52.043Z,39.30
2023-04-18T16:54:19.955Z,39.40
2023-04-18T16:56:48.425Z,39.78
2023-04-18T16:59:16.471Z,40.07
2023-04-18T17:01:44.444Z,39.95
2023-04-18T17:04:12.743Z,40.28
2023-04-18T17:06:42.969Z,40.21
2023-04-18T17:09:13.588Z,41.10
2023-04-18T17:11:41.919Z,41.33
2023-04-18T17:14:09.802Z,41.60
2023-04-18T17:16:39.162Z,42.01
2023-04-18T17:19:07.692Z,42.50
2023-04-18T17:21:37.096Z,43.23
2023-04-18T17:24:07.008Z,43.77
2023-04-18T17:26:37.131Z,44.44
2023-04-18T17:29:05.014Z,44.83
2023-04-18T17:31:32.976Z,45.31
2023-04-18T17:34:01.064Z,45.93
2023-04-18T17:36:29.234Z,46.44
2023-04-18T17:39:05.375Z,46.77
2023-04-18T17:41:38.222Z,47.14
2023-04-18T17:44:08.276Z,46.94
2023-04-18T17:46:36.360Z,47.05
2023-04-18T17:49:04.901Z,47.05
2023-04-18T17:51:38.370Z,47.30
2023-04-18T17:54:13.514Z,47.56
2023-04-18T17:56:41.435Z,47.25
2023-04-18T17:59:09.938Z,47.27
2023-04-18T18:01:37.952Z,47.43
2023-04-18T18:04:06.392Z,47.81
2023-04-18T18:06:34.667Z,48.62
2023-04-18T18:09:03.174Z,48.96
2023-04-18T18:11:31.503Z,49.54
2023-04-18T18:14:00.622Z,50.11
2023-04-18T18:16:28.795Z,50.31
2023-04-18T18:18:57.087Z,50.74
2023-04-18T18:21:26.389Z,51.26
2023-04-18T18:23:54.411Z,51.92
2023-04-18T18:26:22.746Z,52.56
2023-04-18T18:28:50.623Z,52.89
2023-04-18T18:31:22.661Z,53.24
2023-04-18T18:33:51.797Z,53.77
2023-04-18T18:36:19.819Z,54.20
2023-04-18T18:38:47.814Z,54.32
2023-04-18T18:41:15.925Z,54.68
2023-04-18T18:43:43.827Z,55.11
2023-04-18T18:46:11.727Z,55.26
2023-04-18T18:48:39.719Z,55.47
2023-04-18T18:51:07.687Z,55.79
2023-04-18T18:53:37.690Z,55.93
2023-04-18T18:56:08.743Z,56.33
2023-04-18T18:58:36.801Z,56.43
2023-04-18T19:01:05.836Z,56.46
2023-04-18T19:03:34.901Z,56.46
2023-04-18T19:06:04.337Z,56.39
2023-04-18T19:08:32.475Z,56.70
2023-04-18T19:11:00.608Z,56.45
2023-04-18T19:13:28.654Z,56.68
2023-04-18T19:15:58.266Z,56.81
2023-04-18T19:18:26.637Z,56.82
2023-04-18T19:20:54.655Z,56.80
2023-04-18T19:23:25.221Z,56.91
2023-04-18T19:25:55.061Z,56.93
2023-04-18T19:28:23.371Z,57.10
2023-04-18T19:30:51.263Z,56.88
2023-04-18T19:33:22.934Z,56.92
2023-04-18T19:35:51.410Z,56.94
2023-04-18T19:38:19.485Z,56.94
2023-04-18T19:40:47.373Z,57.01
2023-04-18T19:43:15.295Z,57.16
2023-04-18T19:45:43.200Z,57.38
2023-04-18T19:48:11.891Z,57.50
2023-04-18T19:50:40.497Z,57.78
2023-04-18T19:53:11.270Z,57.77
2023-04-18T19:55:39.172Z,57.86
2023-04-18T19:58:07.200Z,57.84
2023-04-18T20:00:55.196Z,57.65
2023-04-18T20:03:29.519Z,57.79
2023-04-18T20:05:57.773Z,57.94
2023-04-18T20:08:26.185Z,58.20
2023-04-18T20:11:10.733Z,58.11
2023-04-18T20:13:39.092Z,58.52
2023-04-18T20:16:08.970Z,58.77
2023-04-18T20:18:39.787Z,58.84
2023-04-18T20:21:08.241Z,59.10
2023-04-18T20:23:39.561Z,59.23
2023-04-18T20:26:07.799Z,59.48
2023-04-18T20:28:36.457Z,59.84
2023-04-18T20:31:07.498Z,60.20
2023-04-18T20:33:38.981Z,60.26
2023-04-18T20:36:08.289Z,60.24
2023-04-18T20:38:37.020Z,60.44
2023-04-18T20:41:05.205Z,60.75
2023-04-18T20:43:37.262Z,60.97
2023-04-18T20:46:07.064Z,61.17
2023-04-18T20:48:35.217Z,61.31
2023-04-18T20:51:03.235Z,61.61
2023-04-18T20:53:34.007Z,61.68
2023-04-18T20:56:03.094Z,61.70
2023-04-18T20:58:31.071Z,61.99
2023-04-18T21:00:58.959Z,62.41
2023-04-18T21:03:28.966Z,62.46
2023-04-18T21:05:57.145Z,62.64
2023-04-18T21:08:27.750Z,62.76
2023-04-18T21:10:55.720Z,62.89
2023-04-18T21:13:23.880Z,63.27
2023-04-18T21:15:52.171Z,63.44
2023-04-18T21:18:20.252Z,63.72
2023-04-18T21:20:48.255Z,64.01
2023-04-18T21:23:16.163Z,63.96
2023-04-18T21:25:44.108Z,64.15
2023-04-18T21:28:12.576Z,64.03
2023-04-18T21:30:40.443Z,64.04
2023-04-18T21:33:08.473Z,64.27
2023-04-18T21:35:36.323Z,64.70
2023-04-18T21:38:04.426Z,64.98
2023-04-18T21:40:33.392Z,65.35
2023-04-18T21:43:01.196Z,65.45
2023-04-18T21:45:29.147Z,65.61
2023-04-18T21:47:57.254Z,65.82
2023-04-18T21:50:25.474Z,66.02
2023-04-18T21:52:53.412Z,66.28
2023-04-18T21:55:21.351Z,66.59
2023-04-18T21:57:49.240Z,66.65
2023-04-18T22:00:17.570Z,66.53
2023-04-18T22:02:45.750Z,66.58
2023-04-18T22:05:13.969Z,66.82
2023-04-18T22:07:54.413Z,66.94
2023-04-18T22:10:22.847Z,66.96
2023-04-18T22:12:54.156Z,67.25
2023-04-18T22:15:22.727Z,67.19
2023-04-18T22:17:51.254Z,67.36
2023-04-18T22:20:19.204Z,67.59
2023-04-18T22:22:47.325Z,67.76
2023-04-18T22:25:17.551Z,67.96
2023-04-18T22:27:46.495Z,68.03
2023-04-18T22:30:14.848Z,68.39
2023-04-18T22:32:42.863Z,68.72
2023-04-18T22:35:10.864Z,68.79
2023-04-18T22:37:38.979Z,68.83
2023-04-18T22:40:08.743Z,69.10
2023-04-18T22:42:38.570Z,69.37
2023-04-18T22:45:07.449Z,69.41
2023-04-18T22:47:35.481Z,69.36
2023-04-18T22:50:03.560Z,69.60
2023-04-18T22:52:31.491Z,69.78
2023-04-18T22:54:59.544Z,69.73
2023-04-18T22:57:27.608Z,69.84
2023-04-18T22:59:56.052Z,69.91
2023-04-18T23:02:24.635Z,69.95
2023-04-18T23:04:53.403Z,69.96
2023-04-18T23:07:21.374Z,69.74
2023-04-18T23:09:49.238Z,69.86
2023-04-18T23:12:17.228Z,69.65
2023-04-18T23:14:45.480Z,69.62
2023-04-18T23:17:13.492Z,69.45
2023-04-18T23:19:41.584Z,68.96
2023-04-18T23:22:09.539Z,69.39
2023-04-18T23:24:39.062Z,69.66
2023-04-18T23:27:07.019Z,69.48
2023-04-18T23:29:39.265Z,69.71
2023-04-18T23:32:07.312Z,69.57
2023-04-18T23:34:35.451Z,69.59
2023-04-18T23:37:03.402Z,69.67
2023-04-18T23:39:31.380Z,69.58
2023-04-18T23:41:59.326Z,69.53
2023-04-18T23:44:27.374Z,69.41
2023-04-18T23:46:55.740Z,69.36
2023-04-18T23:49:23.673Z,69.29
2023-04-18T23:51:51.635Z,69.26
2023-04-18T23:54:19.434Z,69.13
2023-04-18T23:56:47.243Z,69.40
2023-04-18T23:59:15.198Z,69.23
